This is the latest recevied weather packets stored in our database for station/object KF7SOJ. If no packets are shown the sender has not sent any weather packets the latest 1 day(s).
| Time | Temp. | Humidity | Pressure | Rain* | Wind** | Luminosity | Snow |
|---|---|---|---|---|---|---|---|
| 1778080054 | 6.67° C | 49% | 934.4 hPa | 0 mm | - | 490 W/m² | - |
| 1778077028 | 3.33° C | 52% | 934.9 hPa | 0 mm | - | 306 W/m² | - |
| 1778076726 | 3.89° C | 50% | 935 hPa | 0 mm | - | 283 W/m² | - |
| 1778076120 | 3.33° C | 51% | 935 hPa | 0 mm | - | 250 W/m² | - |
| 1778075817 | 2.78° C | 51% | 935.1 hPa | 0 mm | - | 232 W/m² | - |
| 1778075513 | 2.22° C | 53% | 934.9 hPa | 0 mm | - | 215 W/m² | - |
| 1778075210 | 1.67° C | 53% | 935.1 hPa | 0 mm | - | 198 W/m² | - |
| 1778074300 | 1.67° C | 54% | 935.2 hPa | 0 mm | - | 152 W/m² | - |
| 1778073694 | 1.11° C | 55% | 935.2 hPa | 0 mm | - | 124 W/m² | - |
| 1778070669 | -1.11° C | 61% | 935 hPa | 0 mm | - | 29 W/m² | - |
| 1778069155 | -2.22° C | 62% | 935 hPa | 0 mm | - | 11 W/m² | - |
| 1778068248 | -2.22° C | 63% | 934.8 hPa | 0 mm | - | 3 W/m² | - |
| 1778067341 | -1.67° C | 61% | 934.8 hPa | 0 mm | - | 0 W/m² | - |
| 1778067038 | -1.67° C | 60% | 934.9 hPa | 0 mm | - | 0 W/m² | - |
| 1778066130 | -1.11° C | 59% | 934.8 hPa | 0 mm | - | 0 W/m² | - |
| 1778064615 | -2.22° C | 61% | 935 hPa | 0 mm | - | 0 W/m² | - |
| 1778064313 | -1.67° C | 58% | 935 hPa | 0 mm | - | 0 W/m² | - |
| 1778063404 | -1.67° C | 59% | 935 hPa | 0 mm | - | 0 W/m² | - |
| 1778062193 | -2.22° C | 61% | 934.9 hPa | 0 mm | - | 0 W/m² | - |
| 1778060983 | -1.11° C | 57% | 934.8 hPa | 0 mm | - | 0 W/m² | - |
| 1778060682 | -0.56° C | 55% | 934.8 hPa | 0 mm | - | 0 W/m² | - |
| 1778060379 | -0.56° C | 56% | 934.9 hPa | 0 mm | - | 0 W/m² | - |
| 1778060077 | -0.56° C | 56% | 934.8 hPa | 0 mm | - | 0 W/m² | - |
| 1778059774 | 0° C | 55% | 934.8 hPa | 0 mm | - | 0 W/m² | - |
| 1778058867 | 0° C | 56% | 934.9 hPa | 0 mm | - | 0 W/m² | - |
* Rain latest hour (hover to see other rain measurements)
** Current wind speed in m/s (hover to see current wind gust speed)